sensor_id;sensor_type;location;lat;lon;timestamp;P1;durP1;ratioP1;P2;durP2;ratioP2
22191;SDS011;11261;52.456;10.850;2023-05-10T00:01:42;5.35;;;2.58;;
22191;SDS011;11261;52.456;10.850;2023-05-10T00:04:11;5.47;;;2.85;;
22191;SDS011;11261;52.456;10.850;2023-05-10T00:06:39;4.03;;;2.55;;
22191;SDS011;11261;52.456;10.850;2023-05-10T00:09:07;5.10;;;2.55;;
22191;SDS011;11261;52.456;10.850;2023-05-10T00:11:36;3.15;;;2.28;;
22191;SDS011;11261;52.456;10.850;2023-05-10T00:14:04;4.97;;;2.47;;
22191;SDS011;11261;52.456;10.850;2023-05-10T00:16:33;3.58;;;2.85;;
22191;SDS011;11261;52.456;10.850;2023-05-10T00:19:01;2.85;;;2.42;;
22191;SDS011;11261;52.456;10.850;2023-05-10T00:21:30;3.70;;;2.28;;
22191;SDS011;11261;52.456;10.850;2023-05-10T00:24:00;3.83;;;2.45;;
22191;SDS011;11261;52.456;10.850;2023-05-10T00:26:28;3.58;;;2.38;;
22191;SDS011;11261;52.456;10.850;2023-05-10T00:28:56;3.72;;;2.53;;
22191;SDS011;11261;52.456;10.850;2023-05-10T00:31:24;3.97;;;2.55;;
22191;SDS011;11261;52.456;10.850;2023-05-10T00:33:54;4.97;;;2.47;;
22191;SDS011;11261;52.456;10.850;2023-05-10T00:36:23;3.83;;;2.53;;
22191;SDS011;11261;52.456;10.850;2023-05-10T00:38:51;3.30;;;2.70;;
22191;SDS011;11261;52.456;10.850;2023-05-10T00:41:19;2.70;;;2.33;;
22191;SDS011;11261;52.456;10.850;2023-05-10T00:43:48;3.22;;;2.30;;
22191;SDS011;11261;52.456;10.850;2023-05-10T00:46:17;3.13;;;2.78;;
22191;SDS011;11261;52.456;10.850;2023-05-10T00:48:45;5.53;;;2.53;;
22191;SDS011;11261;52.456;10.850;2023-05-10T00:51:15;4.47;;;2.65;;
22191;SDS011;11261;52.456;10.850;2023-05-10T00:53:43;5.00;;;2.60;;
22191;SDS011;11261;52.456;10.850;2023-05-10T00:56:12;4.88;;;2.78;;
22191;SDS011;11261;52.456;10.850;2023-05-10T00:58:41;4.25;;;2.13;;
22191;SDS011;11261;52.456;10.850;2023-05-10T01:01:09;5.00;;;2.83;;
22191;SDS011;11261;52.456;10.850;2023-05-10T01:03:39;3.70;;;2.60;;
22191;SDS011;11261;52.456;10.850;2023-05-10T01:06:07;5.15;;;2.80;;
22191;SDS011;11261;52.456;10.850;2023-05-10T01:08:38;4.18;;;2.22;;
22191;SDS011;11261;52.456;10.850;2023-05-10T01:11:07;2.88;;;2.03;;
22191;SDS011;11261;52.456;10.850;2023-05-10T01:13:36;2.75;;;2.08;;
22191;SDS011;11261;52.456;10.850;2023-05-10T01:16:06;4.00;;;2.70;;
22191;SDS011;11261;52.456;10.850;2023-05-10T01:18:36;4.40;;;2.47;;
22191;SDS011;11261;52.456;10.850;2023-05-10T01:21:09;9.43;;;2.42;;
22191;SDS011;11261;52.456;10.850;2023-05-10T01:23:49;5.30;;;2.55;;
22191;SDS011;11261;52.456;10.850;2023-05-10T01:30:01;5.07;;;2.65;;
22191;SDS011;11261;52.456;10.850;2023-05-10T01:32:44;6.30;;;2.80;;
22191;SDS011;11261;52.456;10.850;2023-05-10T01:35:19;3.38;;;2.40;;
22191;SDS011;11261;52.456;10.850;2023-05-10T01:37:56;2.78;;;2.33;;
22191;SDS011;11261;52.456;10.850;2023-05-10T01:40:34;3.97;;;2.50;;
22191;SDS011;11261;52.456;10.850;2023-05-10T01:43:08;4.55;;;2.60;;
22191;SDS011;11261;52.456;10.850;2023-05-10T01:45:45;3.00;;;2.50;;
22191;SDS011;11261;52.456;10.850;2023-05-10T01:48:19;3.90;;;2.80;;
22191;SDS011;11261;52.456;10.850;2023-05-10T01:50:50;4.05;;;2.70;;
22191;SDS011;11261;52.456;10.850;2023-05-10T01:53:19;4.40;;;3.03;;
22191;SDS011;11261;52.456;10.850;2023-05-10T01:55:52;6.07;;;2.55;;
22191;SDS011;11261;52.456;10.850;2023-05-10T01:58:23;5.07;;;2.45;;
22191;SDS011;11261;52.456;10.850;2023-05-10T02:00:55;5.53;;;3.05;;
22191;SDS011;11261;52.456;10.850;2023-05-10T02:03:27;4.15;;;2.72;;
22191;SDS011;11261;52.456;10.850;2023-05-10T02:05:57;2.38;;;2.03;;
22191;SDS011;11261;52.456;10.850;2023-05-10T02:08:27;4.22;;;2.28;;
22191;SDS011;11261;52.456;10.850;2023-05-10T02:10:56;4.68;;;2.63;;
22191;SDS011;11261;52.456;10.850;2023-05-10T02:13:26;5.13;;;2.60;;
22191;SDS011;11261;52.456;10.850;2023-05-10T02:15:57;5.10;;;2.95;;
22191;SDS011;11261;52.456;10.850;2023-05-10T02:18:27;7.25;;;2.63;;
22191;SDS011;11261;52.456;10.850;2023-05-10T02:20:56;3.95;;;2.47;;
22191;SDS011;11261;52.456;10.850;2023-05-10T02:23:26;3.85;;;2.70;;
22191;SDS011;11261;52.456;10.850;2023-05-10T02:25:56;4.68;;;3.28;;
22191;SDS011;11261;52.456;10.850;2023-05-10T02:28:26;4.30;;;2.92;;
22191;SDS011;11261;52.456;10.850;2023-05-10T02:30:55;3.75;;;2.72;;
22191;SDS011;11261;52.456;10.850;2023-05-10T02:33:24;4.10;;;2.90;;
22191;SDS011;11261;52.456;10.850;2023-05-10T02:35:57;3.45;;;2.45;;
22191;SDS011;11261;52.456;10.850;2023-05-10T02:38:26;6.60;;;2.85;;
22191;SDS011;11261;52.456;10.850;2023-05-10T02:40:55;5.13;;;2.90;;
22191;SDS011;11261;52.456;10.850;2023-05-10T02:43:24;3.65;;;2.42;;
22191;SDS011;11261;52.456;10.850;2023-05-10T02:45:53;8.50;;;3.20;;
22191;SDS011;11261;52.456;10.850;2023-05-10T02:48:21;5.75;;;3.10;;
22191;SDS011;11261;52.456;10.850;2023-05-10T02:50:52;5.63;;;3.33;;
22191;SDS011;11261;52.456;10.850;2023-05-10T02:53:22;4.10;;;2.50;;
22191;SDS011;11261;52.456;10.850;2023-05-10T02:55:53;3.60;;;3.10;;
22191;SDS011;11261;52.456;10.850;2023-05-10T02:58:26;6.50;;;3.22;;
22191;SDS011;11261;52.456;10.850;2023-05-10T03:00:55;3.97;;;2.95;;
22191;SDS011;11261;52.456;10.850;2023-05-10T03:03:23;4.32;;;2.58;;
22191;SDS011;11261;52.456;10.850;2023-05-10T03:05:53;4.95;;;3.03;;
22191;SDS011;11261;52.456;10.850;2023-05-10T03:08:22;3.78;;;2.75;;
22191;SDS011;11261;52.456;10.850;2023-05-10T03:10:54;4.95;;;2.90;;
22191;SDS011;11261;52.456;10.850;2023-05-10T03:13:32;6.25;;;3.00;;
22191;SDS011;11261;52.456;10.850;2023-05-10T03:16:08;4.28;;;3.22;;
22191;SDS011;11261;52.456;10.850;2023-05-10T03:18:42;3.50;;;2.72;;
22191;SDS011;11261;52.456;10.850;2023-05-10T03:21:17;3.45;;;2.63;;
22191;SDS011;11261;52.456;10.850;2023-05-10T03:23:50;8.13;;;3.30;;
22191;SDS011;11261;52.456;10.850;2023-05-10T03:26:26;4.13;;;2.83;;
22191;SDS011;11261;52.456;10.850;2023-05-10T03:28:55;5.40;;;2.63;;
22191;SDS011;11261;52.456;10.850;2023-05-10T03:31:26;4.05;;;2.92;;
22191;SDS011;11261;52.456;10.850;2023-05-10T03:33:54;4.43;;;2.70;;
22191;SDS011;11261;52.456;10.850;2023-05-10T03:36:24;4.18;;;2.92;;
22191;SDS011;11261;52.456;10.850;2023-05-10T03:38:52;6.25;;;3.17;;
22191;SDS011;11261;52.456;10.850;2023-05-10T03:41:20;3.47;;;2.90;;
22191;SDS011;11261;52.456;10.850;2023-05-10T03:43:49;4.40;;;2.83;;
22191;SDS011;11261;52.456;10.850;2023-05-10T03:46:17;5.43;;;3.40;;
22191;SDS011;11261;52.456;10.850;2023-05-10T03:48:46;4.32;;;3.10;;
22191;SDS011;11261;52.456;10.850;2023-05-10T03:51:14;5.15;;;2.55;;
22191;SDS011;11261;52.456;10.850;2023-05-10T03:53:44;4.63;;;2.90;;
22191;SDS011;11261;52.456;10.850;2023-05-10T03:56:12;4.82;;;2.80;;
22191;SDS011;11261;52.456;10.850;2023-05-10T03:58:40;4.20;;;2.88;;
22191;SDS011;11261;52.456;10.850;2023-05-10T04:01:09;3.47;;;2.70;;
22191;SDS011;11261;52.456;10.850;2023-05-10T04:03:37;3.78;;;2.85;;
22191;SDS011;11261;52.456;10.850;2023-05-10T04:06:06;5.22;;;2.50;;
22191;SDS011;11261;52.456;10.850;2023-05-10T04:08:38;4.53;;;3.03;;
22191;SDS011;11261;52.456;10.850;2023-05-10T04:11:07;3.35;;;2.55;;
22191;SDS011;11261;52.456;10.850;2023-05-10T04:13:37;3.53;;;2.50;;
22191;SDS011;11261;52.456;10.850;2023-05-10T04:16:05;4.13;;;2.95;;
22191;SDS011;11261;52.456;10.850;2023-05-10T04:18:33;4.97;;;3.03;;
22191;SDS011;11261;52.456;10.850;2023-05-10T04:21:02;4.15;;;3.20;;
22191;SDS011;11261;52.456;10.850;2023-05-10T04:23:31;4.70;;;3.28;;
22191;SDS011;11261;52.456;10.850;2023-05-10T04:25:59;3.67;;;2.35;;
22191;SDS011;11261;52.456;10.850;2023-05-10T04:28:29;3.55;;;2.97;;
22191;SDS011;11261;52.456;10.850;2023-05-10T04:31:00;3.15;;;2.85;;
22191;SDS011;11261;52.456;10.850;2023-05-10T04:33:29;6.78;;;2.60;;
22191;SDS011;11261;52.456;10.850;2023-05-10T04:35:58;4.93;;;2.60;;
22191;SDS011;11261;52.456;10.850;2023-05-10T04:38:27;5.55;;;3.55;;
22191;SDS011;11261;52.456;10.850;2023-05-10T04:41:03;3.97;;;3.28;;
22191;SDS011;11261;52.456;10.850;2023-05-10T04:43:34;4.00;;;3.08;;
22191;SDS011;11261;52.456;10.850;2023-05-10T04:46:02;5.53;;;3.28;;
22191;SDS011;11261;52.456;10.850;2023-05-10T04:48:31;4.55;;;3.13;;
22191;SDS011;11261;52.456;10.850;2023-05-10T04:50:59;6.45;;;3.10;;
22191;SDS011;11261;52.456;10.850;2023-05-10T04:53:27;5.18;;;3.00;;
22191;SDS011;11261;52.456;10.850;2023-05-10T04:55:56;3.88;;;2.90;;
22191;SDS011;11261;52.456;10.850;2023-05-10T04:58:24;4.03;;;2.65;;
22191;SDS011;11261;52.456;10.850;2023-05-10T05:00:54;3.80;;;2.85;;
22191;SDS011;11261;52.456;10.850;2023-05-10T05:03:22;4.53;;;2.75;;
22191;SDS011;11261;52.456;10.850;2023-05-10T05:05:50;4.00;;;3.15;;
22191;SDS011;11261;52.456;10.850;2023-05-10T05:08:18;3.60;;;2.50;;
22191;SDS011;11261;52.456;10.850;2023-05-10T05:10:47;6.93;;;2.90;;
22191;SDS011;11261;52.456;10.850;2023-05-10T05:13:17;3.83;;;2.58;;
22191;SDS011;11261;52.456;10.850;2023-05-10T05:15:45;3.58;;;2.60;;
22191;SDS011;11261;52.456;10.850;2023-05-10T05:18:15;4.85;;;3.10;;
22191;SDS011;11261;52.456;10.850;2023-05-10T05:20:43;8.82;;;3.30;;
22191;SDS011;11261;52.456;10.850;2023-05-10T05:23:11;5.05;;;2.92;;
22191;SDS011;11261;52.456;10.850;2023-05-10T05:25:40;5.45;;;2.80;;
22191;SDS011;11261;52.456;10.850;2023-05-10T05:28:08;3.58;;;2.70;;
22191;SDS011;11261;52.456;10.850;2023-05-10T05:30:36;6.75;;;3.20;;
22191;SDS011;11261;52.456;10.850;2023-05-10T05:33:04;3.50;;;2.80;;
22191;SDS011;11261;52.456;10.850;2023-05-10T05:35:34;3.95;;;3.10;;
22191;SDS011;11261;52.456;10.850;2023-05-10T05:38:02;5.93;;;2.72;;
22191;SDS011;11261;52.456;10.850;2023-05-10T05:40:30;4.93;;;2.40;;
22191;SDS011;11261;52.456;10.850;2023-05-10T05:42:59;5.30;;;4.63;;
22191;SDS011;11261;52.456;10.850;2023-05-10T05:45:27;11.75;;;10.65;;
22191;SDS011;11261;52.456;10.850;2023-05-10T05:47:55;14.20;;;12.95;;
22191;SDS011;11261;52.456;10.850;2023-05-10T05:50:23;5.70;;;4.35;;
22191;SDS011;11261;52.456;10.850;2023-05-10T05:52:53;8.15;;;3.00;;
22191;SDS011;11261;52.456;10.850;2023-05-10T05:55:22;4.07;;;2.53;;
22191;SDS011;11261;52.456;10.850;2023-05-10T05:57:52;4.22;;;2.55;;
22191;SDS011;11261;52.456;10.850;2023-05-10T06:00:20;3.22;;;2.17;;
22191;SDS011;11261;52.456;10.850;2023-05-10T06:02:49;6.20;;;2.67;;
22191;SDS011;11261;52.456;10.850;2023-05-10T06:05:18;4.68;;;2.80;;
22191;SDS011;11261;52.456;10.850;2023-05-10T06:07:46;4.72;;;2.97;;
22191;SDS011;11261;52.456;10.850;2023-05-10T06:10:16;4.55;;;2.58;;
22191;SDS011;11261;52.456;10.850;2023-05-10T06:12:44;5.65;;;3.03;;
22191;SDS011;11261;52.456;10.850;2023-05-10T06:15:12;3.72;;;2.80;;
22191;SDS011;11261;52.456;10.850;2023-05-10T06:17:41;3.75;;;2.80;;
22191;SDS011;11261;52.456;10.850;2023-05-10T06:20:11;7.20;;;2.95;;
22191;SDS011;11261;52.456;10.850;2023-05-10T06:22:40;4.65;;;2.78;;
22191;SDS011;11261;52.456;10.850;2023-05-10T06:25:09;5.85;;;3.13;;
22191;SDS011;11261;52.456;10.850;2023-05-10T06:27:39;3.97;;;3.25;;
22191;SDS011;11261;52.456;10.850;2023-05-10T06:30:07;6.57;;;3.35;;
22191;SDS011;11261;52.456;10.850;2023-05-10T06:32:39;5.43;;;3.10;;
22191;SDS011;11261;52.456;10.850;2023-05-10T06:35:07;4.22;;;2.47;;
22191;SDS011;11261;52.456;10.850;2023-05-10T06:37:36;3.58;;;2.55;;
22191;SDS011;11261;52.456;10.850;2023-05-10T06:40:05;5.15;;;2.90;;
22191;SDS011;11261;52.456;10.850;2023-05-10T06:42:35;6.45;;;3.17;;
22191;SDS011;11261;52.456;10.850;2023-05-10T06:45:06;3.80;;;3.30;;
22191;SDS011;11261;52.456;10.850;2023-05-10T06:47:35;6.65;;;3.45;;
22191;SDS011;11261;52.456;10.850;2023-05-10T06:50:05;3.53;;;2.80;;
22191;SDS011;11261;52.456;10.850;2023-05-10T06:52:34;5.07;;;2.88;;
22191;SDS011;11261;52.456;10.850;2023-05-10T06:55:03;6.57;;;3.28;;
22191;SDS011;11261;52.456;10.850;2023-05-10T06:57:32;3.60;;;2.63;;
22191;SDS011;11261;52.456;10.850;2023-05-10T07:00:00;5.28;;;2.92;;
22191;SDS011;11261;52.456;10.850;2023-05-10T07:02:31;6.50;;;3.03;;
22191;SDS011;11261;52.456;10.850;2023-05-10T07:05:00;4.25;;;2.80;;
22191;SDS011;11261;52.456;10.850;2023-05-10T07:07:29;4.95;;;2.90;;
22191;SDS011;11261;52.456;10.850;2023-05-10T07:09:57;4.40;;;3.15;;
22191;SDS011;11261;52.456;10.850;2023-05-10T07:12:26;4.25;;;2.70;;
22191;SDS011;11261;52.456;10.850;2023-05-10T07:14:54;3.92;;;2.70;;
22191;SDS011;11261;52.456;10.850;2023-05-10T07:17:22;5.57;;;2.85;;
22191;SDS011;11261;52.456;10.850;2023-05-10T07:19:52;4.93;;;2.65;;
22191;SDS011;11261;52.456;10.850;2023-05-10T07:22:20;3.72;;;2.92;;
22191;SDS011;11261;52.456;10.850;2023-05-10T07:24:49;3.95;;;2.92;;
22191;SDS011;11261;52.456;10.850;2023-05-10T07:27:17;7.25;;;3.35;;
22191;SDS011;11261;52.456;10.850;2023-05-10T07:29:45;6.43;;;2.78;;
22191;SDS011;11261;52.456;10.850;2023-05-10T07:32:13;4.68;;;2.90;;
22191;SDS011;11261;52.456;10.850;2023-05-10T07:34:42;5.00;;;3.20;;
22191;SDS011;11261;52.456;10.850;2023-05-10T07:37:11;6.70;;;3.00;;
22191;SDS011;11261;52.456;10.850;2023-05-10T07:39:40;3.35;;;2.50;;
22191;SDS011;11261;52.456;10.850;2023-05-10T07:42:08;6.18;;;3.80;;
22191;SDS011;11261;52.456;10.850;2023-05-10T07:44:36;4.32;;;3.28;;
22191;SDS011;11261;52.456;10.850;2023-05-10T07:47:04;4.43;;;3.08;;
22191;SDS011;11261;52.456;10.850;2023-05-10T07:49:32;5.15;;;3.17;;
22191;SDS011;11261;52.456;10.850;2023-05-10T07:52:02;3.95;;;2.85;;
22191;SDS011;11261;52.456;10.850;2023-05-10T07:54:32;5.18;;;3.20;;
22191;SDS011;11261;52.456;10.850;2023-05-10T07:57:01;5.45;;;2.90;;
22191;SDS011;11261;52.456;10.850;2023-05-10T07:59:29;5.20;;;3.35;;
22191;SDS011;11261;52.456;10.850;2023-05-10T08:01:58;6.07;;;2.88;;
22191;SDS011;11261;52.456;10.850;2023-05-10T08:04:29;5.18;;;3.20;;
22191;SDS011;11261;52.456;10.850;2023-05-10T08:06:57;4.30;;;3.60;;
22191;SDS011;11261;52.456;10.850;2023-05-10T08:09:25;5.53;;;3.47;;
22191;SDS011;11261;52.456;10.850;2023-05-10T08:11:55;4.45;;;3.00;;
22191;SDS011;11261;52.456;10.850;2023-05-10T08:14:25;4.95;;;3.90;;
22191;SDS011;11261;52.456;10.850;2023-05-10T08:16:54;5.28;;;3.95;;
22191;SDS011;11261;52.456;10.850;2023-05-10T08:19:22;4.88;;;3.40;;
22191;SDS011;11261;52.456;10.850;2023-05-10T08:21:52;5.93;;;3.47;;
22191;SDS011;11261;52.456;10.850;2023-05-10T08:24:22;4.20;;;3.22;;
22191;SDS011;11261;52.456;10.850;2023-05-10T08:26:50;3.85;;;3.00;;
22191;SDS011;11261;52.456;10.850;2023-05-10T08:29:20;6.68;;;2.95;;
22191;SDS011;11261;52.456;10.850;2023-05-10T08:31:48;5.90;;;3.33;;
22191;SDS011;11261;52.456;10.850;2023-05-10T08:34:16;4.03;;;3.13;;
22191;SDS011;11261;52.456;10.850;2023-05-10T08:36:44;5.75;;;3.30;;
22191;SDS011;11261;52.456;10.850;2023-05-10T08:39:13;6.07;;;3.33;;
22191;SDS011;11261;52.456;10.850;2023-05-10T08:41:54;5.60;;;3.38;;
22191;SDS011;11261;52.456;10.850;2023-05-10T08:44:29;3.80;;;2.95;;
22191;SDS011;11261;52.456;10.850;2023-05-10T08:46:58;6.10;;;3.20;;
22191;SDS011;11261;52.456;10.850;2023-05-10T08:49:30;6.70;;;3.15;;
22191;SDS011;11261;52.456;10.850;2023-05-10T08:51:59;3.55;;;3.00;;
22191;SDS011;11261;52.456;10.850;2023-05-10T08:54:31;5.95;;;2.72;;
22191;SDS011;11261;52.456;10.850;2023-05-10T08:57:00;5.10;;;2.90;;
22191;SDS011;11261;52.456;10.850;2023-05-10T08:59:30;3.85;;;3.03;;
22191;SDS011;11261;52.456;10.850;2023-05-10T09:01:59;6.72;;;3.60;;
22191;SDS011;11261;52.456;10.850;2023-05-10T09:04:28;5.03;;;3.53;;
22191;SDS011;11261;52.456;10.850;2023-05-10T09:06:57;5.68;;;3.20;;
22191;SDS011;11261;52.456;10.850;2023-05-10T09:09:26;4.65;;;3.22;;
22191;SDS011;11261;52.456;10.850;2023-05-10T09:11:55;5.75;;;3.40;;
22191;SDS011;11261;52.456;10.850;2023-05-10T09:14:23;4.50;;;3.20;;
22191;SDS011;11261;52.456;10.850;2023-05-10T09:16:54;4.78;;;2.90;;
22191;SDS011;11261;52.456;10.850;2023-05-10T09:19:22;3.90;;;2.75;;
22191;SDS011;11261;52.456;10.850;2023-05-10T09:21:50;3.65;;;2.70;;
22191;SDS011;11261;52.456;10.850;2023-05-10T09:24:19;3.47;;;2.90;;
22191;SDS011;11261;52.456;10.850;2023-05-10T09:26:52;3.65;;;2.53;;
22191;SDS011;11261;52.456;10.850;2023-05-10T09:29:20;3.47;;;2.25;;
22191;SDS011;11261;52.456;10.850;2023-05-10T09:31:49;3.55;;;2.50;;
22191;SDS011;11261;52.456;10.850;2023-05-10T09:34:20;3.00;;;2.20;;
22191;SDS011;11261;52.456;10.850;2023-05-10T09:36:55;5.05;;;2.60;;
22191;SDS011;11261;52.456;10.850;2023-05-10T09:39:30;5.10;;;2.58;;
22191;SDS011;11261;52.456;10.850;2023-05-10T09:41:59;2.72;;;2.17;;
22191;SDS011;11261;52.456;10.850;2023-05-10T09:44:31;3.63;;;2.55;;
22191;SDS011;11261;52.456;10.850;2023-05-10T09:47:00;5.28;;;2.85;;
22191;SDS011;11261;52.456;10.850;2023-05-10T09:49:30;3.50;;;2.78;;
22191;SDS011;11261;52.456;10.850;2023-05-10T09:52:00;4.00;;;2.65;;
22191;SDS011;11261;52.456;10.850;2023-05-10T09:54:30;3.95;;;2.78;;
22191;SDS011;11261;52.456;10.850;2023-05-10T09:56:58;3.97;;;2.72;;
22191;SDS011;11261;52.456;10.850;2023-05-10T09:59:27;3.50;;;2.50;;
22191;SDS011;11261;52.456;10.850;2023-05-10T10:01:56;3.65;;;2.53;;
22191;SDS011;11261;52.456;10.850;2023-05-10T10:04:24;4.32;;;2.90;;
22191;SDS011;11261;52.456;10.850;2023-05-10T10:07:01;5.50;;;3.28;;
22191;SDS011;11261;52.456;10.850;2023-05-10T10:09:31;4.85;;;2.55;;
22191;SDS011;11261;52.456;10.850;2023-05-10T10:12:00;5.65;;;3.20;;
22191;SDS011;11261;52.456;10.850;2023-05-10T10:14:29;5.30;;;3.55;;
22191;SDS011;11261;52.456;10.850;2023-05-10T10:16:57;5.15;;;3.72;;
22191;SDS011;11261;52.456;10.850;2023-05-10T10:19:34;4.78;;;3.65;;
22191;SDS011;11261;52.456;10.850;2023-05-10T10:22:05;4.75;;;3.25;;
22191;SDS011;11261;52.456;10.850;2023-05-10T10:24:33;3.83;;;2.67;;
22191;SDS011;11261;52.456;10.850;2023-05-10T10:27:04;4.85;;;3.58;;
22191;SDS011;11261;52.456;10.850;2023-05-10T10:29:41;4.03;;;2.70;;
22191;SDS011;11261;52.456;10.850;2023-05-10T10:32:19;3.38;;;2.95;;
22191;SDS011;11261;52.456;10.850;2023-05-10T10:34:52;5.85;;;2.90;;
22191;SDS011;11261;52.456;10.850;2023-05-10T10:37:23;4.22;;;3.33;;
22191;SDS011;11261;52.456;10.850;2023-05-10T10:40:24;4.13;;;3.25;;
22191;SDS011;11261;52.456;10.850;2023-05-10T10:42:53;8.23;;;2.92;;
22191;SDS011;11261;52.456;10.850;2023-05-10T10:45:23;3.75;;;3.08;;
22191;SDS011;11261;52.456;10.850;2023-05-10T10:50:55;3.67;;;2.97;;
22191;SDS011;11261;52.456;10.850;2023-05-10T10:53:27;3.47;;;2.60;;
22191;SDS011;11261;52.456;10.850;2023-05-10T10:56:02;3.25;;;2.55;;
22191;SDS011;11261;52.456;10.850;2023-05-10T10:58:34;3.65;;;2.75;;
22191;SDS011;11261;52.456;10.850;2023-05-10T11:01:13;3.95;;;2.42;;
22191;SDS011;11261;52.456;10.850;2023-05-10T11:03:54;4.40;;;2.90;;
22191;SDS011;11261;52.456;10.850;2023-05-10T11:06:46;3.40;;;2.70;;
22191;SDS011;11261;52.456;10.850;2023-05-10T11:09:15;3.03;;;2.63;;
22191;SDS011;11261;52.456;10.850;2023-05-10T11:11:51;4.43;;;2.75;;
22191;SDS011;11261;52.456;10.850;2023-05-10T11:14:21;2.75;;;2.03;;
22191;SDS011;11261;52.456;10.850;2023-05-10T11:16:50;3.45;;;2.60;;
22191;SDS011;11261;52.456;10.850;2023-05-10T11:19:19;2.53;;;2.13;;
22191;SDS011;11261;52.456;10.850;2023-05-10T11:21:47;3.08;;;2.25;;
22191;SDS011;11261;52.456;10.850;2023-05-10T11:24:19;2.97;;;2.20;;
22191;SDS011;11261;52.456;10.850;2023-05-10T11:26:49;5.18;;;2.42;;
22191;SDS011;11261;52.456;10.850;2023-05-10T11:29:18;3.78;;;2.10;;
22191;SDS011;11261;52.456;10.850;2023-05-10T11:31:47;2.28;;;2.05;;
22191;SDS011;11261;52.456;10.850;2023-05-10T11:34:25;2.80;;;1.85;;
22191;SDS011;11261;52.456;10.850;2023-05-10T11:36:56;3.13;;;2.25;;
22191;SDS011;11261;52.456;10.850;2023-05-10T11:39:27;2.42;;;1.75;;
22191;SDS011;11261;52.456;10.850;2023-05-10T11:41:56;2.53;;;1.90;;
22191;SDS011;11261;52.456;10.850;2023-05-10T11:44:28;2.28;;;1.85;;
22191;SDS011;11261;52.456;10.850;2023-05-10T11:46:58;2.03;;;1.77;;
22191;SDS011;11261;52.456;10.850;2023-05-10T11:49:27;2.88;;;1.70;;
22191;SDS011;11261;52.456;10.850;2023-05-10T11:52:03;2.38;;;1.90;;
22191;SDS011;11261;52.456;10.850;2023-05-10T11:54:33;2.35;;;1.50;;
22191;SDS011;11261;52.456;10.850;2023-05-10T11:57:02;1.95;;;1.42;;
22191;SDS011;11261;52.456;10.850;2023-05-10T11:59:31;2.05;;;1.85;;
22191;SDS011;11261;52.456;10.850;2023-05-10T12:01:59;2.63;;;1.50;;
22191;SDS011;11261;52.456;10.850;2023-05-10T12:04:28;1.83;;;1.73;;
22191;SDS011;11261;52.456;10.850;2023-05-10T12:06:56;1.88;;;1.48;;
22191;SDS011;11261;52.456;10.850;2023-05-10T12:09:25;2.45;;;1.67;;
22191;SDS011;11261;52.456;10.850;2023-05-10T12:11:57;2.03;;;1.52;;
22191;SDS011;11261;52.456;10.850;2023-05-10T12:14:25;1.80;;;1.55;;
22191;SDS011;11261;52.456;10.850;2023-05-10T12:16:55;2.72;;;1.50;;
22191;SDS011;11261;52.456;10.850;2023-05-10T12:19:25;2.22;;;1.70;;
22191;SDS011;11261;52.456;10.850;2023-05-10T12:21:53;1.45;;;1.33;;
22191;SDS011;11261;52.456;10.850;2023-05-10T12:24:23;1.42;;;1.10;;
22191;SDS011;11261;52.456;10.850;2023-05-10T12:26:52;0.77;;;0.77;;
22191;SDS011;11261;52.456;10.850;2023-05-10T12:29:21;2.25;;;0.77;;
22191;SDS011;11261;52.456;10.850;2023-05-10T12:31:53;1.02;;;0.50;;
22191;SDS011;11261;52.456;10.850;2023-05-10T12:34:23;1.02;;;0.60;;
22191;SDS011;11261;52.456;10.850;2023-05-10T12:36:57;1.20;;;0.70;;
22191;SDS011;11261;52.456;10.850;2023-05-10T12:39:37;0.70;;;0.70;;
22191;SDS011;11261;52.456;10.850;2023-05-10T12:42:06;0.50;;;0.50;;
22191;SDS011;11261;52.456;10.850;2023-05-10T12:44:36;0.80;;;0.60;;
22191;SDS011;11261;52.456;10.850;2023-05-10T12:47:04;0.93;;;0.50;;
22191;SDS011;11261;52.456;10.850;2023-05-10T12:49:33;1.55;;;0.70;;
22191;SDS011;11261;52.456;10.850;2023-05-10T12:52:01;0.50;;;0.50;;
22191;SDS011;11261;52.456;10.850;2023-05-10T12:54:30;1.40;;;0.60;;
22191;SDS011;11261;52.456;10.850;2023-05-10T12:56:58;0.50;;;0.50;;
22191;SDS011;11261;52.456;10.850;2023-05-10T12:59:26;0.77;;;0.40;;
22191;SDS011;11261;52.456;10.850;2023-05-10T13:01:56;0.85;;;0.55;;
22191;SDS011;11261;52.456;10.850;2023-05-10T13:04:25;0.40;;;0.40;;
22191;SDS011;11261;52.456;10.850;2023-05-10T13:06:53;0.60;;;0.60;;
22191;SDS011;11261;52.456;10.850;2023-05-10T13:09:24;1.63;;;0.85;;
22191;SDS011;11261;52.456;10.850;2023-05-10T13:11:52;0.98;;;0.65;;
22191;SDS011;11261;52.456;10.850;2023-05-10T13:14:21;2.40;;;0.60;;
22191;SDS011;11261;52.456;10.850;2023-05-10T13:16:50;0.40;;;0.40;;
22191;SDS011;11261;52.456;10.850;2023-05-10T13:19:19;0.50;;;0.50;;
22191;SDS011;11261;52.456;10.850;2023-05-10T13:21:47;0.60;;;0.60;;
22191;SDS011;11261;52.456;10.850;2023-05-10T13:24:16;0.73;;;0.73;;
22191;SDS011;11261;52.456;10.850;2023-05-10T13:26:44;0.90;;;0.70;;
22191;SDS011;11261;52.456;10.850;2023-05-10T13:29:12;0.95;;;0.60;;
22191;SDS011;11261;52.456;10.850;2023-05-10T13:31:43;1.55;;;0.60;;
22191;SDS011;11261;52.456;10.850;2023-05-10T13:34:12;0.50;;;0.50;;
22191;SDS011;11261;52.456;10.850;2023-05-10T13:36:42;1.55;;;0.80;;
22191;SDS011;11261;52.456;10.850;2023-05-10T13:39:10;1.63;;;0.70;;
22191;SDS011;11261;52.456;10.850;2023-05-10T13:41:38;0.90;;;0.90;;
22191;SDS011;11261;52.456;10.850;2023-05-10T13:44:06;0.50;;;0.50;;
22191;SDS011;11261;52.456;10.850;2023-05-10T13:46:35;0.57;;;0.57;;
22191;SDS011;11261;52.456;10.850;2023-05-10T13:49:04;0.50;;;0.50;;
22191;SDS011;11261;52.456;10.850;2023-05-10T13:51:33;0.90;;;0.60;;
22191;SDS011;11261;52.456;10.850;2023-05-10T13:54:03;1.35;;;0.60;;
22191;SDS011;11261;52.456;10.850;2023-05-10T13:56:32;1.67;;;0.65;;
22191;SDS011;11261;52.456;10.850;2023-05-10T13:59:01;1.60;;;0.60;;
22191;SDS011;11261;52.456;10.850;2023-05-10T14:01:29;2.05;;;0.60;;
22191;SDS011;11261;52.456;10.850;2023-05-10T14:03:57;1.15;;;0.65;;
22191;SDS011;11261;52.456;10.850;2023-05-10T14:06:26;1.65;;;0.52;;
22191;SDS011;11261;52.456;10.850;2023-05-10T14:08:54;0.60;;;0.60;;
22191;SDS011;11261;52.456;10.850;2023-05-10T14:11:24;0.50;;;0.50;;
22191;SDS011;11261;52.456;10.850;2023-05-10T14:13:52;0.70;;;0.70;;
22191;SDS011;11261;52.456;10.850;2023-05-10T14:16:20;0.60;;;0.60;;
22191;SDS011;11261;52.456;10.850;2023-05-10T14:18:49;0.60;;;0.60;;
22191;SDS011;11261;52.456;10.850;2023-05-10T14:21:17;2.70;;;0.52;;
22191;SDS011;11261;52.456;10.850;2023-05-10T14:23:45;0.60;;;0.60;;
22191;SDS011;11261;52.456;10.850;2023-05-10T14:26:14;0.70;;;0.60;;
22191;SDS011;11261;52.456;10.850;2023-05-10T14:28:43;1.05;;;0.52;;
22191;SDS011;11261;52.456;10.850;2023-05-10T14:31:12;1.67;;;0.75;;
22191;SDS011;11261;52.456;10.850;2023-05-10T14:33:43;1.95;;;0.63;;
22191;SDS011;11261;52.456;10.850;2023-05-10T14:36:11;0.82;;;0.82;;
22191;SDS011;11261;52.456;10.850;2023-05-10T14:38:39;0.85;;;0.63;;
22191;SDS011;11261;52.456;10.850;2023-05-10T14:41:08;0.90;;;0.65;;
22191;SDS011;11261;52.456;10.850;2023-05-10T14:43:40;0.98;;;0.80;;
22191;SDS011;11261;52.456;10.850;2023-05-10T14:46:10;1.00;;;0.80;;
22191;SDS011;11261;52.456;10.850;2023-05-10T14:48:38;1.75;;;0.90;;
22191;SDS011;11261;52.456;10.850;2023-05-10T14:51:07;2.25;;;0.98;;
22191;SDS011;11261;52.456;10.850;2023-05-10T14:53:35;1.00;;;0.90;;
22191;SDS011;11261;52.456;10.850;2023-05-10T14:56:03;1.30;;;0.80;;